Time;durP1;ratioP1;P1;durP2;ratioP2;P2;SDS_P1;SDS_P2;PMS_P1;PMS_P2;Temp;Humidity;BMP_temperature;BMP_pressure;BME280_temperature;BME280_humidity;BME280_pressure;Samples;Min_cycle;Max_cycle;Signal;HPM_P1;HPM_P2
2024/02/25 00:02:06;;;;;;;11.93;4.53;;;9.90;74.80;;;;;;5029496;27;113679;-51
2024/02/25 00:04:32;;;;;;;8.43;4.18;;;9.80;75.10;;;;;;5030227;27;112829;-52
2024/02/25 00:06:57;;;;;;;13.30;7.20;;;9.80;75.30;;;;;;5031063;27;112736;-52
2024/02/25 00:09:23;;;;;;;11.52;5.53;;;9.80;75.30;;;;;;5030839;27;112810;-52
2024/02/25 00:11:48;;;;;;;10.18;4.50;;;9.80;75.30;;;;;;5029983;27;114266;-51
2024/02/25 00:14:14;;;;;;;9.63;4.05;;;9.90;75.40;;;;;;5029423;27;112678;-51
2024/02/25 00:16:40;;;;;;;10.38;3.95;;;9.90;75.30;;;;;;5030710;27;112921;-51
2024/02/25 00:19:06;;;;;;;10.93;3.90;;;9.90;75.00;;;;;;5030850;27;113010;-51
2024/02/25 00:21:31;;;;;;;11.48;4.60;;;9.80;75.00;;;;;;5029612;27;113446;-52
2024/02/25 00:23:57;;;;;;;7.25;3.92;;;9.70;75.50;;;;;;5029408;27;112913;-51
2024/02/25 00:26:23;;;;;;;7.78;3.83;;;9.70;76.00;;;;;;5030656;27;113035;-52
2024/02/25 00:28:49;;;;;;;11.13;4.35;;;9.70;75.90;;;;;;5030867;27;112806;-52
2024/02/25 00:31:15;;;;;;;9.88;4.25;;;9.70;75.60;;;;;;5029662;27;113202;-52
2024/02/25 00:33:40;;;;;;;8.85;4.63;;;9.60;76.10;;;;;;5028975;27;112920;-51
2024/02/25 00:36:07;;;;;;;8.25;4.38;;;9.60;76.20;;;;;;5030453;27;112610;-51
2024/02/25 00:38:33;;;;;;;9.77;4.65;;;9.50;76.40;;;;;;5030241;27;112734;-51
2024/02/25 00:40:59;;;;;;;7.55;4.63;;;9.50;76.30;;;;;;5029719;27;113649;-51
2024/02/25 00:43:25;;;;;;;8.60;4.70;;;9.50;76.70;;;;;;5029749;27;112541;-51
2024/02/25 00:45:50;;;;;;;10.55;4.40;;;9.50;77.00;;;;;;5030355;27;112650;-51
2024/02/25 00:48:16;;;;;;;10.65;4.20;;;9.70;76.40;;;;;;5030713;27;113120;-52
2024/02/25 00:50:42;;;;;;;14.55;4.55;;;9.60;76.20;;;;;;5028963;27;114473;-50
2024/02/25 00:53:07;;;;;;;9.23;4.55;;;9.50;76.70;;;;;;5029511;27;112743;-51
2024/02/25 00:55:33;;;;;;;8.38;4.80;;;9.40;77.00;;;;;;5030091;27;113260;-51
2024/02/25 00:57:59;;;;;;;7.95;4.90;;;9.40;77.10;;;;;;5030591;27;112656;-51
2024/02/25 01:00:24;;;;;;;9.32;4.53;;;9.50;76.80;;;;;;5028997;27;113225;-51
2024/02/25 01:02:50;;;;;;;8.75;4.40;;;9.60;76.60;;;;;;5028730;27;113678;-51
2024/02/25 01:05:16;;;;;;;8.55;4.90;;;9.60;76.70;;;;;;5031201;27;112477;-51
2024/02/25 01:07:43;;;;;;;12.43;5.65;;;9.40;77.80;;;;;;5030329;27;112641;-51
2024/02/25 01:10:09;;;;;;;9.85;4.72;;;9.40;78.10;;;;;;5029068;27;113398;-51
2024/02/25 01:12:35;;;;;;;12.27;5.30;;;9.30;78.40;;;;;;5029073;27;113082;-51
2024/02/25 01:15:01;;;;;;;9.15;5.47;;;9.30;78.30;;;;;;5030060;27;112601;-51
2024/02/25 01:17:26;;;;;;;11.00;5.10;;;9.30;78.70;;;;;;5029919;27;113046;-52
2024/02/25 01:19:52;;;;;;;9.60;4.68;;;9.30;78.30;;;;;;5029198;27;113150;-51
2024/02/25 01:22:18;;;;;;;9.88;5.18;;;9.40;77.80;;;;;;5028546;27;112710;-51
2024/02/25 01:24:43;;;;;;;9.13;5.53;;;9.40;77.40;;;;;;5029929;27;112483;-51
2024/02/25 01:27:09;;;;;;;12.23;5.85;;;9.40;77.50;;;;;;5029685;27;112693;-51
2024/02/25 01:29:35;;;;;;;11.15;5.45;;;9.30;77.50;;;;;;5028402;27;115099;-51
2024/02/25 01:32:00;;;;;;;10.32;5.30;;;9.20;78.40;;;;;;5028791;27;112838;-51
2024/02/25 01:34:28;;;;;;;7.68;5.18;;;9.20;78.40;;;;;;5029398;27;112829;-51
2024/02/25 01:36:54;;;;;;;9.25;5.15;;;9.30;78.30;;;;;;5029505;27;112700;-51
2024/02/25 01:39:23;;;;;;;11.52;5.85;;;9.40;77.80;;;;;;5028380;27;113404;-52
2024/02/25 01:41:53;;;;;;;8.57;5.32;;;9.30;78.10;;;;;;5028488;27;112573;-51
2024/02/25 01:44:19;;;;;;;10.10;5.65;;;9.20;78.50;;;;;;5028934;27;112646;-52
2024/02/25 01:46:45;;;;;;;15.07;6.55;;;9.10;78.50;;;;;;5029913;27;112714;-52
2024/02/25 01:49:14;;;;;;;11.07;5.88;;;9.10;78.80;;;;;;5028354;27;113682;-51
2024/02/25 01:51:42;;;;;;;11.45;5.93;;;9.10;79.10;;;;;;5028021;27;114098;-51
2024/02/25 01:54:08;;;;;;;9.98;6.20;;;9.10;79.30;;;;;;5029405;27;112487;-51
2024/02/25 01:56:35;;;;;;;10.55;5.97;;;9.20;78.90;;;;;;5026481;27;112670;-50
2024/02/25 01:59:02;;;;;;;9.10;5.40;;;9.20;78.80;;;;;;5026591;27;116955;-51
2024/02/25 02:01:29;;;;;;;10.95;5.63;;;9.10;79.10;;;;;;5028160;27;113051;-51
2024/02/25 02:03:54;;;;;;;13.75;6.40;;;9.30;79.00;;;;;;5033586;27;112710;-51
2024/02/25 02:06:20;;;;;;;11.07;6.15;;;9.30;78.60;;;;;;5039757;27;113041;-51
2024/02/25 02:08:46;;;;;;;11.07;5.95;;;9.30;79.10;;;;;;5030682;27;113225;-51
2024/02/25 02:11:20;;;;;;;12.13;6.70;;;9.20;79.10;;;;;;5039652;27;113181;-51
2024/02/25 02:13:46;;;;;;;11.02;6.45;;;9.10;79.20;;;;;;5029350;27;113059;-51
2024/02/25 02:16:15;;;;;;;11.60;5.90;;;9.10;79.50;;;;;;5027218;27;113097;-51
2024/02/25 02:18:44;;;;;;;10.77;6.40;;;9.10;79.30;;;;;;5021667;27;113196;-51
2024/02/25 02:21:17;;;;;;;12.05;5.93;;;9.20;79.40;;;;;;5021510;27;114037;-51
2024/02/25 02:23:43;;;;;;;11.10;6.38;;;9.30;79.20;;;;;;5029112;27;112854;-51
2024/02/25 02:26:09;;;;;;;13.05;6.30;;;9.30;79.00;;;;;;5028336;27;112729;-51
2024/02/25 02:28:34;;;;;;;9.65;6.20;;;9.20;78.90;;;;;;5028236;27;113214;-52
2024/02/25 02:31:00;;;;;;;13.45;6.78;;;9.00;79.30;;;;;;5027731;27;112826;-52
2024/02/25 02:33:26;;;;;;;14.10;7.13;;;8.90;79.90;;;;;;5029303;27;112892;-52
2024/02/25 02:35:51;;;;;;;10.90;6.80;;;9.00;79.90;;;;;;5028706;27;112624;-52
2024/02/25 02:38:18;;;;;;;12.50;6.85;;;9.00;79.70;;;;;;5027392;27;113218;-51
2024/02/25 02:40:44;;;;;;;13.00;7.65;;;9.10;79.40;;;;;;5027578;27;114005;-51
2024/02/25 02:43:10;;;;;;;13.80;7.10;;;8.90;80.20;;;;;;5028907;27;113506;-51
2024/02/25 02:45:42;;;;;;;11.32;7.00;;;8.80;80.20;;;;;;5028931;27;112613;-51
2024/02/25 02:48:09;;;;;;;10.55;7.32;;;8.90;80.20;;;;;;5027418;27;113246;-51
2024/02/25 02:50:35;;;;;;;13.40;7.88;;;8.80;80.40;;;;;;5027827;27;113819;-52
2024/02/25 02:53:01;;;;;;;12.35;7.53;;;8.70;80.60;;;;;;5028252;27;112879;-51
2024/02/25 02:55:26;;;;;;;8.90;7.32;;;8.70;81.00;;;;;;5028478;27;112739;-51
2024/02/25 02:57:52;;;;;;;11.45;6.90;;;8.80;80.80;;;;;;5027796;27;113912;-51
2024/02/25 03:00:18;;;;;;;10.57;7.05;;;8.80;80.40;;;;;;5026945;27;112764;-50
2024/02/25 03:02:44;;;;;;;9.75;6.72;;;8.70;80.80;;;;;;5027913;27;113007;-51
2024/02/25 03:05:09;;;;;;;11.77;7.30;;;8.80;80.60;;;;;;5028475;27;112871;-51
2024/02/25 03:07:35;;;;;;;16.55;8.18;;;9.00;79.90;;;;;;5027707;27;114028;-51
2024/02/25 03:10:01;;;;;;;12.82;7.22;;;8.80;80.30;;;;;;5026812;27;113621;-51
2024/02/25 03:12:26;;;;;;;11.40;7.47;;;8.80;80.20;;;;;;5027715;27;113011;-51
2024/02/25 03:14:52;;;;;;;14.18;7.97;;;8.80;80.20;;;;;;5028493;27;112751;-52
2024/02/25 03:17:20;;;;;;;11.52;7.75;;;8.90;80.30;;;;;;5027433;27;113711;-51
2024/02/25 03:19:45;;;;;;;11.65;7.75;;;8.70;80.70;;;;;;5027447;27;113500;-51
2024/02/25 03:22:11;;;;;;;15.55;7.30;;;8.80;80.80;;;;;;5030166;27;112628;-51
2024/02/25 03:24:37;;;;;;;17.48;8.25;;;8.70;80.70;;;;;;5032065;27;112633;-51
2024/02/25 03:27:03;;;;;;;14.00;8.02;;;8.70;81.10;;;;;;5030861;27;114021;-51
2024/02/25 03:29:29;;;;;;;12.68;7.90;;;8.80;81.00;;;;;;5030545;27;113317;-52
2024/02/25 03:31:55;;;;;;;12.77;7.55;;;8.80;80.80;;;;;;5032091;27;112911;-51
2024/02/25 03:34:20;;;;;;;13.13;7.55;;;8.80;81.00;;;;;;5032206;27;113142;-51
2024/02/25 03:36:46;;;;;;;10.25;8.30;;;8.80;80.70;;;;;;5030635;27;113264;-51
2024/02/25 03:39:12;;;;;;;13.43;7.97;;;8.80;80.80;;;;;;5030824;27;113026;-51
2024/02/25 03:41:38;;;;;;;11.32;7.53;;;8.80;80.90;;;;;;5031503;27;112609;-51
2024/02/25 03:44:03;;;;;;;11.10;7.65;;;8.90;80.60;;;;;;5031659;27;114833;-51
2024/02/25 03:46:29;;;;;;;15.38;7.88;;;8.80;80.70;;;;;;5030599;27;113458;-51
2024/02/25 03:48:55;;;;;;;17.63;9.20;;;8.70;80.80;;;;;;5030440;27;112711;-52
2024/02/25 03:51:20;;;;;;;10.52;8.52;;;8.70;81.20;;;;;;5030727;27;112574;-51
2024/02/25 03:53:46;;;;;;;11.15;7.85;;;8.60;81.30;;;;;;5030951;27;112691;-51
2024/02/25 03:56:12;;;;;;;12.25;8.48;;;8.60;81.50;;;;;;5019977;27;113172;-51
2024/02/25 03:58:37;;;;;;;10.45;8.18;;;8.50;81.80;;;;;;5030345;27;112995;-51
2024/02/25 04:01:04;;;;;;;9.63;7.50;;;8.70;81.60;;;;;;5031126;27;112712;-51
2024/02/25 04:03:29;;;;;;;13.30;7.82;;;8.70;81.20;;;;;;5031500;27;112748;-51
2024/02/25 04:05:55;;;;;;;13.93;7.93;;;8.80;81.00;;;;;;5029817;27;113265;-51
2024/02/25 04:08:21;;;;;;;11.35;7.53;;;8.80;80.80;;;;;;5030542;27;113156;-51
2024/02/25 04:10:47;;;;;;;13.52;7.60;;;8.80;81.10;;;;;;5030882;27;112605;-52
2024/02/25 04:13:14;;;;;;;11.05;6.68;;;8.80;80.90;;;;;;5031437;27;113038;-51
2024/02/25 04:15:39;;;;;;;9.45;7.20;;;8.80;80.70;;;;;;5030107;27;113604;-51
2024/02/25 04:18:06;;;;;;;10.43;7.10;;;8.70;81.00;;;;;;5030026;27;113068;-51
2024/02/25 04:20:31;;;;;;;10.02;7.72;;;8.70;80.70;;;;;;5030303;27;113465;-51
2024/02/25 04:22:57;;;;;;;14.38;7.90;;;8.70;80.70;;;;;;5030832;27;112968;-51
2024/02/25 04:25:23;;;;;;;12.75;7.90;;;8.60;80.90;;;;;;5029311;27;113398;-51
2024/02/25 04:27:48;;;;;;;14.82;8.13;;;8.40;81.30;;;;;;5029717;27;112786;-51
2024/02/25 04:30:14;;;;;;;13.38;8.25;;;8.30;81.80;;;;;;5030968;27;112915;-51
2024/02/25 04:32:43;;;;;;;14.82;8.68;;;8.20;82.10;;;;;;5030438;27;112699;-51
2024/02/25 04:35:09;;;;;;;11.23;8.02;;;8.30;81.80;;;;;;5029650;27;113396;-51
2024/02/25 04:37:35;;;;;;;13.93;7.40;;;8.30;81.70;;;;;;5030083;27;113129;-51
2024/02/25 04:40:03;;;;;;;10.52;7.63;;;8.40;81.40;;;;;;5030532;27;112838;-51
2024/02/25 04:42:28;;;;;;;11.65;7.38;;;8.30;81.90;;;;;;5030467;27;112753;-51
2024/02/25 04:44:54;;;;;;;8.95;7.72;;;8.20;82.10;;;;;;5029372;27;114612;-51
2024/02/25 04:47:20;;;;;;;12.15;7.63;;;8.10;82.20;;;;;;5029590;27;113018;-51
2024/02/25 04:49:47;;;;;;;10.77;6.70;;;8.10;82.40;;;;;;5030571;27;112799;-51
2024/02/25 04:52:13;;;;;;;12.60;7.20;;;8.20;82.20;;;;;;5029849;27;112736;-51
2024/02/25 04:54:40;;;;;;;15.30;7.07;;;8.30;82.00;;;;;;5029142;27;113167;-51
2024/02/25 04:57:06;;;;;;;14.68;7.05;;;8.30;82.00;;;;;;5026501;27;112910;-51
2024/02/25 04:59:32;;;;;;;10.63;6.38;;;8.30;81.90;;;;;;5030482;27;112900;-51
2024/02/25 05:01:58;;;;;;;9.50;6.20;;;8.40;81.60;;;;;;5030011;27;112669;-51
2024/02/25 05:04:24;;;;;;;9.57;6.35;;;8.40;81.60;;;;;;5029041;27;113176;-51
2024/02/25 05:06:50;;;;;;;14.48;7.07;;;8.40;81.60;;;;;;5027581;27;116240;-52
2024/02/25 05:09:16;;;;;;;11.52;7.03;;;8.40;81.70;;;;;;5030178;27;112773;-51
2024/02/25 05:11:41;;;;;;;8.77;5.93;;;8.40;81.70;;;;;;5030001;27;112723;-51
2024/02/25 05:14:07;;;;;;;12.05;6.10;;;8.40;81.60;;;;;;5029198;27;114603;-51
2024/02/25 05:16:33;;;;;;;11.93;6.35;;;8.40;81.70;;;;;;5028476;27;113398;-51
2024/02/25 05:18:59;;;;;;;14.77;6.22;;;8.40;81.50;;;;;;5030092;27;112759;-51
2024/02/25 05:21:24;;;;;;;13.27;6.03;;;8.40;81.40;;;;;;5030097;27;112938;-51
2024/02/25 05:23:50;;;;;;;10.00;5.78;;;8.40;81.20;;;;;;5027376;27;114987;-51
2024/02/25 05:26:16;;;;;;;8.90;5.90;;;8.40;81.30;;;;;;5028787;27;112858;-51
2024/02/25 05:28:41;;;;;;;8.50;5.63;;;8.40;81.40;;;;;;5029093;27;113054;-52
2024/02/25 05:31:07;;;;;;;9.02;5.90;;;8.30;81.60;;;;;;5029055;27;113142;-51
2024/02/25 05:33:33;;;;;;;10.50;5.45;;;8.30;81.60;;;;;;5028473;27;113146;-51
2024/02/25 05:35:58;;;;;;;12.90;5.80;;;8.10;82.10;;;;;;5028627;27;112719;-51
2024/02/25 05:38:24;;;;;;;12.13;6.00;;;8.10;81.70;;;;;;5027956;27;112652;-51
2024/02/25 05:40:50;;;;;;;9.35;5.97;;;8.00;82.10;;;;;;5029583;27;112705;-51
2024/02/25 05:43:15;;;;;;;12.40;5.53;;;8.00;82.00;;;;;;5026973;27;113754;-51
2024/02/25 05:45:41;;;;;;;9.93;5.72;;;8.10;82.10;;;;;;5027580;27;112559;-51
2024/02/25 05:48:07;;;;;;;10.82;5.68;;;8.10;81.90;;;;;;5028066;27;112864;-51
2024/02/25 05:50:33;;;;;;;9.75;5.63;;;8.10;82.10;;;;;;5029215;27;112690;-51
2024/02/25 05:52:58;;;;;;;11.40;5.20;;;8.00;82.00;;;;;;5028601;27;113235;-51
2024/02/25 05:55:24;;;;;;;11.15;5.90;;;8.00;81.80;;;;;;5014482;27;113153;-51
2024/02/25 05:57:50;;;;;;;12.82;5.45;;;8.20;81.70;;;;;;5029736;27;112828;-51
2024/02/25 06:00:16;;;;;;;9.18;5.18;;;8.00;81.90;;;;;;5029317;27;112835;-51
2024/02/25 06:02:46;;;;;;;7.35;4.60;;;7.90;82.30;;;;;;5028322;27;114432;-51
2024/02/25 06:05:17;;;;;;;9.52;4.38;;;8.00;82.20;;;;;;5028315;27;112909;-51
2024/02/25 06:07:44;;;;;;;7.78;4.40;;;8.00;82.40;;;;;;5028512;28;112522;-51
2024/02/25 06:10:11;;;;;;;8.75;4.20;;;8.00;81.90;;;;;;5028917;27;112801;-52
2024/02/25 06:12:38;;;;;;;9.38;4.20;;;8.10;82.00;;;;;;5028567;27;113190;-52
2024/02/25 06:15:05;;;;;;;13.23;4.75;;;8.20;81.50;;;;;;5028030;27;112736;-51
2024/02/25 06:17:30;;;;;;;9.70;4.13;;;8.20;81.60;;;;;;5029463;27;112613;-51
2024/02/25 06:19:56;;;;;;;11.15;4.53;;;8.20;81.60;;;;;;5029015;27;113084;-51
2024/02/25 06:22:22;;;;;;;9.15;4.28;;;8.30;81.50;;;;;;5027977;27;114513;-52
2024/02/25 06:24:47;;;;;;;12.68;5.40;;;8.30;81.70;;;;;;5027939;27;114193;-51
2024/02/25 06:27:14;;;;;;;11.80;4.03;;;8.40;81.30;;;;;;5029016;27;112748;-52
2024/02/25 06:29:40;;;;;;;9.35;3.67;;;8.40;81.20;;;;;;5029201;27;112678;-51
2024/02/25 06:32:06;;;;;;;7.40;3.40;;;8.50;81.10;;;;;;5028156;27;113530;-51
2024/02/25 06:34:31;;;;;;;8.88;3.17;;;8.60;80.50;;;;;;5027937;27;112803;-51
2024/02/25 06:36:57;;;;;;;6.20;3.15;;;8.70;80.30;;;;;;5029343;27;112744;-51
2024/02/25 06:39:23;;;;;;;7.47;3.53;;;8.80;80.10;;;;;;5029094;27;112776;-51
2024/02/25 06:41:48;;;;;;;8.50;3.53;;;8.90;80.20;;;;;;5027805;27;113188;-51
2024/02/25 06:44:14;;;;;;;8.05;3.38;;;8.90;79.90;;;;;;5036984;27;113031;-51
2024/02/25 06:46:40;;;;;;;8.88;3.70;;;8.90;79.60;;;;;;5030836;27;112663;-51
2024/02/25 06:49:06;;;;;;;9.93;3.25;;;8.90;79.50;;;;;;5027569;27;112930;-51
2024/02/25 06:51:32;;;;;;;9.32;2.92;;;9.00;79.50;;;;;;5027353;27;113586;-51
2024/02/25 06:53:58;;;;;;;7.07;3.80;;;9.00;79.50;;;;;;5026322;27;112845;-51
2024/02/25 06:56:23;;;;;;;12.23;3.95;;;9.10;79.40;;;;;;5028185;27;112688;-51
2024/02/25 06:58:49;;;;;;;6.95;3.53;;;9.10;79.20;;;;;;5028459;27;113131;-51
2024/02/25 07:01:16;;;;;;;9.18;3.70;;;9.30;79.00;;;;;;5027451;27;113446;-52
2024/02/25 07:03:45;;;;;;;10.13;3.55;;;9.30;79.00;;;;;;5027223;27;112867;-51
2024/02/25 07:06:14;;;;;;;9.00;3.20;;;9.50;78.50;;;;;;5028357;27;112956;-51
2024/02/25 07:08:40;;;;;;;7.43;3.15;;;9.60;78.20;;;;;;5028568;27;113394;-51
2024/02/25 07:11:19;;;;;;;7.95;3.67;;;9.70;78.00;;;;;;5026589;27;113198;-51
2024/02/25 07:13:46;;;;;;;9.10;4.38;;;9.90;77.30;;;;;;5024366;27;113653;-51
2024/02/25 07:16:12;;;;;;;10.48;5.50;;;10.10;77.60;;;;;;5028642;27;112600;-51
2024/02/25 07:18:38;;;;;;;11.00;4.72;;;10.20;77.20;;;;;;5027812;27;112740;-51
2024/02/25 07:21:06;;;;;;;9.48;4.22;;;10.30;77.20;;;;;;5026488;27;114405;-51
2024/02/25 07:23:32;;;;;;;6.55;3.38;;;10.50;76.70;;;;;;5027052;27;112587;-51
2024/02/25 07:25:57;;;;;;;13.38;3.63;;;10.80;76.20;;;;;;5028268;27;112944;-51
2024/02/25 07:28:24;;;;;;;6.90;2.83;;;11.10;75.30;;;;;;5027209;27;112652;-51
2024/02/25 07:30:50;;;;;;;7.38;3.25;;;11.50;74.10;;;;;;5020697;27;113205;-51
2024/02/25 07:33:16;;;;;;;8.27;3.20;;;11.90;72.80;;;;;;5026451;27;112920;-51
2024/02/25 07:35:41;;;;;;;5.95;2.72;;;12.00;72.40;;;;;;5027730;27;112459;-51
2024/02/25 07:38:07;;;;;;;6.20;2.63;;;12.20;71.70;;;;;;5027740;27;112781;-51
2024/02/25 07:40:33;;;;;;;9.63;3.17;;;12.30;71.30;;;;;;5026863;28;113151;-51
2024/02/25 07:42:58;;;;;;;8.27;3.10;;;12.30;71.60;;;;;;5026182;27;113860;-51
2024/02/25 07:45:24;;;;;;;7.00;2.85;;;12.40;71.20;;;;;;5026568;28;112830;-51
2024/02/25 07:47:50;;;;;;;5.40;2.55;;;12.50;70.70;;;;;;5027915;27;112922;-51
2024/02/25 07:50:16;;;;;;;12.25;6.85;;;12.70;70.10;;;;;;5026871;27;113433;-51
2024/02/25 07:52:41;;;;;;;8.27;3.88;;;12.70;70.30;;;;;;5022424;27;113002;-52
2024/02/25 07:55:08;;;;;;;11.10;4.90;;;12.80;70.00;;;;;;5027344;27;113060;-52
2024/02/25 07:57:35;;;;;;;7.47;3.42;;;12.80;69.80;;;;;;5027391;27;113092;-52
2024/02/25 08:00:02;;;;;;;7.80;3.20;;;12.90;69.30;;;;;;5026230;27;113118;-51
2024/02/25 08:02:29;;;;;;;6.90;3.20;;;13.00;69.00;;;;;;5026335;27;114083;-51
2024/02/25 08:04:55;;;;;;;7.60;3.60;;;13.10;68.60;;;;;;5027249;27;112641;-51
2024/02/25 08:07:20;;;;;;;6.15;2.72;;;13.20;68.60;;;;;;5027786;27;115371;-51
2024/02/25 08:09:46;;;;;;;6.15;2.90;;;13.10;68.80;;;;;;5029304;27;114402;-51
2024/02/25 08:12:12;;;;;;;10.13;2.72;;;13.20;69.00;;;;;;5030283;27;113072;-51
2024/02/25 08:14:37;;;;;;;6.82;2.65;;;13.30;68.20;;;;;;5031036;27;112675;-51
2024/02/25 08:17:03;;;;;;;16.67;2.70;;;13.30;68.90;;;;;;5030945;27;112967;-52
2024/02/25 08:19:29;;;;;;;6.70;2.70;;;13.40;68.40;;;;;;5029796;27;113236;-51
2024/02/25 08:21:54;;;;;;;6.30;2.50;;;13.70;67.10;;;;;;5021450;27;113919;-51
2024/02/25 08:42:32;;;;;;;15.27;2.90;;;14.30;66.20;;;;;;4988240;28;112530;-53
2024/02/25 08:44:57;;;;;;;4.95;2.17;;;15.10;63.00;;;;;;4967877;28;112822;-52
2024/02/25 08:47:23;;;;;;;6.93;3.05;;;15.20;62.90;;;;;;4949207;28;112753;-52
2024/02/25 08:49:49;;;;;;;10.02;2.78;;;15.40;62.70;;;;;;4946970;28;113187;-52
2024/02/25 08:52:15;;;;;;;9.43;2.90;;;15.50;61.70;;;;;;4964986;28;112931;-52
2024/02/25 08:54:43;;;;;;;5.13;2.50;;;15.80;61.10;;;;;;4965599;28;112602;-52
2024/02/25 08:57:09;;;;;;;12.60;3.60;;;16.10;60.30;;;;;;4965641;28;113050;-52
2024/02/25 08:59:35;;;;;;;6.63;2.38;;;16.10;61.00;;;;;;4970528;28;113230;-52
2024/02/25 09:02:01;;;;;;;6.38;2.60;;;16.20;59.60;;;;;;4977155;28;113112;-53
2024/02/25 09:04:30;;;;;;;6.15;3.08;;;15.90;60.50;;;;;;4947943;28;114284;-52
2024/02/25 09:06:56;;;;;;;5.13;2.42;;;16.10;59.90;;;;;;4965441;28;112887;-52
2024/02/25 09:09:22;;;;;;;5.95;2.38;;;16.10;59.80;;;;;;4964346;28;113208;-53
2024/02/25 09:11:48;;;;;;;6.72;2.13;;;16.00;59.50;;;;;;4964116;28;113673;-53
2024/02/25 09:14:14;;;;;;;6.68;2.47;;;16.00;59.90;;;;;;4965291;28;112485;-53
2024/02/25 09:16:40;;;;;;;5.38;1.90;;;16.30;59.10;;;;;;4965766;28;112936;-53
2024/02/25 09:19:05;;;;;;;5.47;2.03;;;16.40;59.20;;;;;;4964264;28;113121;-52
2024/02/25 09:21:31;;;;;;;5.00;2.30;;;16.20;59.80;;;;;;4964561;28;112684;-53
2024/02/25 09:23:57;;;;;;;5.32;1.98;;;16.50;59.10;;;;;;4965520;28;112607;-52
2024/02/25 09:26:23;;;;;;;6.43;2.20;;;16.40;58.70;;;;;;4964923;28;112746;-53
2024/02/25 09:28:49;;;;;;;7.03;2.03;;;16.30;59.80;;;;;;4963870;28;113178;-53
2024/02/25 09:31:20;;;;;;;4.55;2.42;;;16.40;58.00;;;;;;4964416;28;113089;-52
2024/02/25 09:33:49;;;;;;;5.80;1.90;;;16.50;58.90;;;;;;4966648;28;113076;-53
2024/02/25 09:36:15;;;;;;;7.45;2.35;;;16.10;59.40;;;;;;4966875;28;113355;-53
